sensor_id;sensor_type;location;lat;lon;timestamp;pressure;altitude;pressure_sealevel;temperature;humidity
57904;BME280;43720;47.462;19.030;2023-05-03T03:56:41;100662.72;;;14.13;100.00
57904;BME280;43720;47.462;19.030;2023-05-03T03:59:44;100656.59;;;14.22;100.00
57904;BME280;43720;47.462;19.030;2023-05-03T04:02:46;100658.38;;;14.31;100.00
57904;BME280;43720;47.462;19.030;2023-05-03T04:05:50;100660.13;;;14.32;100.00
57904;BME280;43720;47.462;19.030;2023-05-03T04:08:53;100662.78;;;14.35;100.00
57904;BME280;43720;47.462;19.030;2023-05-03T04:11:56;100661.94;;;14.40;100.00
57904;BME280;43720;47.462;19.030;2023-05-03T04:14:58;100665.44;;;14.42;100.00
57904;BME280;43720;47.462;19.030;2023-05-03T04:18:01;100668.03;;;14.39;100.00
57904;BME280;43720;47.462;19.030;2023-05-03T04:21:03;100666.38;;;14.54;100.00
57904;BME280;43720;47.462;19.030;2023-05-03T04:24:06;100665.50;;;14.50;100.00
57904;BME280;43720;47.462;19.030;2023-05-03T04:27:08;100672.50;;;14.50;100.00
57904;BME280;43720;47.462;19.030;2023-05-03T04:30:12;100669.91;;;14.57;100.00
57904;BME280;43720;47.462;19.030;2023-05-03T04:33:17;100681.31;;;14.56;100.00
57904;BME280;43720;47.462;19.030;2023-05-03T04:36:19;100676.94;;;14.66;100.00
57904;BME280;43720;47.462;19.030;2023-05-03T04:39:23;100685.72;;;14.60;100.00
57904;BME280;43720;47.462;19.030;2023-05-03T04:42:26;100687.44;;;14.61;100.00
57904;BME280;43720;47.462;19.030;2023-05-03T04:45:29;100684.81;;;14.58;100.00
57904;BME280;43720;47.462;19.030;2023-05-03T04:48:31;100687.34;;;14.40;100.00
57904;BME280;43720;47.462;19.030;2023-05-03T04:51:34;100689.97;;;14.37;100.00
57904;BME280;43720;47.462;19.030;2023-05-03T04:54:36;100692.56;;;14.31;100.00
57904;BME280;43720;47.462;19.030;2023-05-03T04:57:39;100694.34;;;14.29;100.00
57904;BME280;43720;47.462;19.030;2023-05-03T05:00:44;100697.87;;;14.41;100.00
57904;BME280;43720;47.462;19.030;2023-05-03T05:03:47;100710.12;;;14.39;100.00
57904;BME280;43720;47.462;19.030;2023-05-03T05:06:52;100711.91;;;14.42;100.00
57904;BME280;43720;47.462;19.030;2023-05-03T05:09:55;100710.12;;;14.38;100.00
57904;BME280;43720;47.462;19.030;2023-05-03T05:12:57;100715.41;;;14.44;100.00
57904;BME280;43720;47.462;19.030;2023-05-03T05:16:00;100712.78;;;14.41;100.00
57904;BME280;43720;47.462;19.030;2023-05-03T05:19:03;100709.34;;;14.54;100.00
57904;BME280;43720;47.462;19.030;2023-05-03T05:22:05;100711.97;;;14.50;100.00
57904;BME280;43720;47.462;19.030;2023-05-03T05:25:09;100705.88;;;14.57;100.00
57904;BME280;43720;47.462;19.030;2023-05-03T05:28:12;100707.66;;;14.64;100.00
57904;BME280;43720;47.462;19.030;2023-05-03T05:31:15;100712.03;;;14.70;100.00
57904;BME280;43720;47.462;19.030;2023-05-03T05:34:18;100709.44;;;14.77;100.00
57904;BME280;43720;47.462;19.030;2023-05-03T05:37:21;100712.09;;;14.94;100.00
57904;BME280;43720;47.462;19.030;2023-05-03T05:40:24;100718.25;;;15.01;100.00
57904;BME280;43720;47.462;19.030;2023-05-03T05:43:27;100713.00;;;15.11;100.00
57904;BME280;43720;47.462;19.030;2023-05-03T05:46:29;100711.22;;;15.13;100.00
57904;BME280;43720;47.462;19.030;2023-05-03T05:49:32;100718.28;;;15.24;100.00
57904;BME280;43720;47.462;19.030;2023-05-03T05:52:35;100721.78;;;15.32;100.00
57904;BME280;43720;47.462;19.030;2023-05-03T05:55:38;100730.56;;;15.28;100.00
57904;BME280;43720;47.462;19.030;2023-05-03T05:58:40;100732.34;;;15.35;100.00
57904;BME280;43720;47.462;19.030;2023-05-03T06:01:43;100739.34;;;15.31;100.00
57904;BME280;43720;47.462;19.030;2023-05-03T06:04:49;100753.41;;;15.30;100.00
57904;BME280;43720;47.462;19.030;2023-05-03T06:07:51;100758.69;;;15.23;100.00
57904;BME280;43720;47.462;19.030;2023-05-03T06:10:54;100763.06;;;15.24;100.00
57904;BME280;43720;47.462;19.030;2023-05-03T06:13:57;100763.03;;;15.21;100.00
57904;BME280;43720;47.462;19.030;2023-05-03T06:17:00;100767.44;;;15.25;100.00
57904;BME280;43720;47.462;19.030;2023-05-03T06:20:03;100770.09;;;15.37;100.00
57904;BME280;43720;47.462;19.030;2023-05-03T06:23:07;100765.72;;;15.45;100.00
57904;BME280;43720;47.462;19.030;2023-05-03T06:26:10;100771.88;;;15.47;100.00
57904;BME280;43720;47.462;19.030;2023-05-03T06:29:13;100771.00;;;15.60;100.00
57904;BME280;43720;47.462;19.030;2023-05-03T06:32:18;100777.19;;;15.73;100.00
57904;BME280;43720;47.462;19.030;2023-05-03T06:35:20;100781.56;;;15.86;100.00
57904;BME280;43720;47.462;19.030;2023-05-03T06:38:23;100785.06;;;15.98;100.00
57904;BME280;43720;47.462;19.030;2023-05-03T06:41:25;100785.06;;;16.05;100.00
57904;BME280;43720;47.462;19.030;2023-05-03T06:44:27;100785.91;;;16.27;100.00
57904;BME280;43720;47.462;19.030;2023-05-03T06:47:30;100788.50;;;16.41;100.00
57904;BME280;43720;47.462;19.030;2023-05-03T06:50:32;100778.78;;;16.55;96.00
57904;BME280;43720;47.462;19.030;2023-05-03T06:53:35;100784.94;;;16.57;96.01
57904;BME280;43720;47.462;19.030;2023-05-03T06:56:37;100789.28;;;16.64;96.33
57904;BME280;43720;47.462;19.030;2023-05-03T06:59:39;100787.50;;;16.71;97.56
57904;BME280;43720;47.462;19.030;2023-05-03T07:02:42;100784.81;;;16.88;100.00
57904;BME280;43720;47.462;19.030;2023-05-03T07:05:44;100787.41;;;16.99;99.69
57904;BME280;43720;47.462;19.030;2023-05-03T07:08:51;100778.63;;;17.00;99.87
57904;BME280;43720;47.462;19.030;2023-05-03T07:11:53;100778.56;;;17.07;95.81
57904;BME280;43720;47.462;19.030;2023-05-03T07:14:56;100770.53;;;17.24;96.19
57904;BME280;43720;47.462;19.030;2023-05-03T07:17:59;100773.19;;;17.21;93.59
57904;BME280;43720;47.462;19.030;2023-05-03T07:21:01;100780.28;;;17.15;92.54
57904;BME280;43720;47.462;19.030;2023-05-03T07:24:09;100777.59;;;17.24;94.43
57904;BME280;43720;47.462;19.030;2023-05-03T07:27:13;100774.91;;;17.31;94.38
57904;BME280;43720;47.462;19.030;2023-05-03T07:30:17;100775.81;;;17.24;91.62
57904;BME280;43720;47.462;19.030;2023-05-03T07:33:19;100772.25;;;17.33;90.22
57904;BME280;43720;47.462;19.030;2023-05-03T07:36:22;100783.53;;;17.53;94.58
57904;BME280;43720;47.462;19.030;2023-05-03T07:39:24;100784.34;;;17.61;89.01
57904;BME280;43720;47.462;19.030;2023-05-03T07:42:27;100785.25;;;17.60;87.52
57904;BME280;43720;47.462;19.030;2023-05-03T07:45:30;100787.84;;;17.65;88.28
57904;BME280;43720;47.462;19.030;2023-05-03T07:48:32;100791.41;;;17.66;90.06
57904;BME280;43720;47.462;19.030;2023-05-03T07:51:35;100787.84;;;17.70;84.74
57904;BME280;43720;47.462;19.030;2023-05-03T07:54:38;100784.28;;;17.71;88.22
57904;BME280;43720;47.462;19.030;2023-05-03T07:57:40;100791.31;;;17.78;91.57
57904;BME280;43720;47.462;19.030;2023-05-03T08:00:43;100795.69;;;17.85;87.53
57904;BME280;43720;47.462;19.030;2023-05-03T08:03:45;100792.00;;;17.98;85.18
57904;BME280;43720;47.462;19.030;2023-05-03T08:06:48;100794.47;;;18.18;84.47
57904;BME280;43720;47.462;19.030;2023-05-03T08:09:51;100791.03;;;18.10;81.94
57904;BME280;43720;47.462;19.030;2023-05-03T08:12:54;100789.25;;;18.11;83.89
57904;BME280;43720;47.462;19.030;2023-05-03T08:15:56;100800.69;;;18.14;85.74
57904;BME280;43720;47.462;19.030;2023-05-03T08:18:59;100796.28;;;18.12;80.81
57904;BME280;43720;47.462;19.030;2023-05-03T08:22:01;100798.03;;;18.14;83.69
57904;BME280;43720;47.462;19.030;2023-05-03T08:25:05;100801.47;;;18.24;82.15
57904;BME280;43720;47.462;19.030;2023-05-03T08:28:10;100796.25;;;18.15;81.22
57904;BME280;43720;47.462;19.030;2023-05-03T08:31:12;100799.69;;;18.26;81.91
57904;BME280;43720;47.462;19.030;2023-05-03T08:34:17;100806.63;;;18.36;82.12
57904;BME280;43720;47.462;19.030;2023-05-03T08:37:19;100804.06;;;18.28;80.96
57904;BME280;43720;47.462;19.030;2023-05-03T08:40:22;100811.06;;;18.36;82.86
57904;BME280;43720;47.462;19.030;2023-05-03T08:44:00;100805.00;;;18.23;78.07
57904;BME280;43720;47.462;19.030;2023-05-03T08:47:03;100807.50;;;18.35;79.81
57904;BME280;43720;47.462;19.030;2023-05-03T08:50:53;100812.06;;;18.22;76.27
57904;BME280;43720;47.462;19.030;2023-05-03T08:53:58;100815.38;;;18.44;77.58
57904;BME280;43720;47.462;19.030;2023-05-03T08:57:00;100816.28;;;18.39;77.48
57904;BME280;43720;47.462;19.030;2023-05-03T09:00:03;100823.28;;;18.47;80.15
57904;BME280;43720;47.462;19.030;2023-05-03T09:03:14;100809.91;;;18.58;80.51
57904;BME280;43720;47.462;19.030;2023-05-03T09:06:23;100809.97;;;18.53;77.37
57904;BME280;43720;47.462;19.030;2023-05-03T09:09:31;100810.69;;;18.68;75.28
57904;BME280;43720;47.462;19.030;2023-05-03T09:12:35;100801.88;;;18.67;74.19
57904;BME280;43720;47.462;19.030;2023-05-03T09:15:37;100813.34;;;18.68;75.66
57904;BME280;43720;47.462;19.030;2023-05-03T09:18:40;100811.38;;;18.87;79.17
57904;BME280;43720;47.462;19.030;2023-05-03T09:21:46;100803.94;;;19.15;72.42
57904;BME280;43720;47.462;19.030;2023-05-03T09:24:56;100801.78;;;19.41;72.77
57904;BME280;43720;47.462;19.030;2023-05-03T09:27:59;100802.56;;;19.48;72.14
57904;BME280;43720;47.462;19.030;2023-05-03T09:31:04;100795.66;;;19.38;71.68
57904;BME280;43720;47.462;19.030;2023-05-03T09:34:29;100800.78;;;19.48;71.92
57904;BME280;43720;47.462;19.030;2023-05-03T09:37:37;100797.13;;;19.57;69.84
57904;BME280;43720;47.462;19.030;2023-05-03T09:40:47;100796.25;;;19.57;73.77
57904;BME280;43720;47.462;19.030;2023-05-03T09:44:05;100800.59;;;19.61;71.54
57904;BME280;43720;47.462;19.030;2023-05-03T09:47:08;100798.84;;;19.58;72.26
57904;BME280;43720;47.462;19.030;2023-05-03T09:50:19;100792.19;;;19.31;70.93
57904;BME280;43720;47.462;19.030;2023-05-03T09:53:21;100791.00;;;19.52;73.44
57904;BME280;43720;47.462;19.030;2023-05-03T09:56:24;100799.56;;;19.72;73.44
57904;BME280;43720;47.462;19.030;2023-05-03T09:59:31;100800.47;;;19.70;71.40
57904;BME280;43720;47.462;19.030;2023-05-03T10:02:34;100798.47;;;19.84;71.72
57904;BME280;43720;47.462;19.030;2023-05-03T10:05:47;100798.59;;;19.76;72.80
57904;BME280;43720;47.462;19.030;2023-05-03T10:12:08;100796.94;;;19.69;71.97
57904;BME280;43720;47.462;19.030;2023-05-03T10:15:14;100794.31;;;19.68;69.87
57904;BME280;43720;47.462;19.030;2023-05-03T10:18:19;100790.47;;;19.86;71.86
57904;BME280;43720;47.462;19.030;2023-05-03T10:21:54;100793.91;;;19.92;68.44
57904;BME280;43720;47.462;19.030;2023-05-03T10:28:07;100787.94;;;19.78;69.60
57904;BME280;43720;47.462;19.030;2023-05-03T10:31:44;100789.63;;;19.84;68.65
57904;BME280;43720;47.462;19.030;2023-05-03T10:34:47;100784.34;;;19.82;72.56
57904;BME280;43720;47.462;19.030;2023-05-03T10:37:49;100789.63;;;19.84;73.21
57904;BME280;43720;47.462;19.030;2023-05-03T10:40:54;100785.25;;;19.81;70.01
57904;BME280;43720;47.462;19.030;2023-05-03T10:43:56;100783.72;;;19.68;70.98
57904;BME280;43720;47.462;19.030;2023-05-03T10:47:17;100785.75;;;19.49;71.67
57904;BME280;43720;47.462;19.030;2023-05-03T10:50:23;100775.06;;;19.53;73.53
57904;BME280;43720;47.462;19.030;2023-05-03T10:56:53;100783.34;;;19.34;73.15
57904;BME280;43720;47.462;19.030;2023-05-03T10:59:57;100781.62;;;19.28;75.00
57904;BME280;43720;47.462;19.030;2023-05-03T11:03:14;100774.50;;;19.31;72.22
57904;BME280;43720;47.462;19.030;2023-05-03T11:06:40;100778.78;;;19.42;75.55
57904;BME280;43720;47.462;19.030;2023-05-03T11:09:43;100775.22;;;19.44;73.37
57904;BME280;43720;47.462;19.030;2023-05-03T11:12:48;100775.16;;;19.49;71.81
57904;BME280;43720;47.462;19.030;2023-05-03T11:15:53;100774.25;;;19.50;72.83
57904;BME280;43720;47.462;19.030;2023-05-03T11:18:56;100774.47;;;19.36;71.82
57904;BME280;43720;47.462;19.030;2023-05-03T11:22:00;100775.53;;;19.23;74.20
57904;BME280;43720;47.462;19.030;2023-05-03T11:25:02;100777.47;;;19.13;73.67
57904;BME280;43720;47.462;19.030;2023-05-03T11:28:05;100777.34;;;19.19;71.60
57904;BME280;43720;47.462;19.030;2023-05-03T11:31:09;100775.56;;;19.20;71.82
57904;BME280;43720;47.462;19.030;2023-05-03T11:34:12;100781.84;;;19.13;71.66
57904;BME280;43720;47.462;19.030;2023-05-03T11:37:17;100781.81;;;19.17;72.04
57904;BME280;43720;47.462;19.030;2023-05-03T11:40:19;100774.62;;;19.25;71.44
57904;BME280;43720;47.462;19.030;2023-05-03T11:43:22;100778.28;;;19.17;75.87
57904;BME280;43720;47.462;19.030;2023-05-03T11:46:32;100775.72;;;19.11;75.72
57904;BME280;43720;47.462;19.030;2023-05-03T11:49:35;100776.69;;;19.05;72.33
57904;BME280;43720;47.462;19.030;2023-05-03T11:52:37;100777.59;;;19.02;73.89
57904;BME280;43720;47.462;19.030;2023-05-03T11:55:41;100774.03;;;19.03;76.04
57904;BME280;43720;47.462;19.030;2023-05-03T11:58:55;100771.41;;;19.03;75.28
57904;BME280;43720;47.462;19.030;2023-05-03T12:02:01;100767.72;;;19.14;71.82
57904;BME280;43720;47.462;19.030;2023-05-03T12:05:06;100761.56;;;19.12;75.37
57904;BME280;43720;47.462;19.030;2023-05-03T12:08:13;100772.28;;;19.05;73.76
57904;BME280;43720;47.462;19.030;2023-05-03T12:11:19;100762.53;;;19.06;74.42
57904;BME280;43720;47.462;19.030;2023-05-03T12:14:26;100771.41;;;19.05;74.05
57904;BME280;43720;47.462;19.030;2023-05-03T12:17:37;100765.03;;;19.17;72.78
57904;BME280;43720;47.462;19.030;2023-05-03T12:20:44;100762.34;;;19.18;72.38
57904;BME280;43720;47.462;19.030;2023-05-03T12:24:15;100765.13;;;19.11;72.11
57904;BME280;43720;47.462;19.030;2023-05-03T12:27:21;100760.72;;;19.10;73.11
57904;BME280;43720;47.462;19.030;2023-05-03T12:30:25;100751.78;;;19.15;70.19
57904;BME280;43720;47.462;19.030;2023-05-03T12:33:30;100743.84;;;19.17;70.41
57904;BME280;43720;47.462;19.030;2023-05-03T12:36:36;100748.25;;;19.16;71.22
57904;BME280;43720;47.462;19.030;2023-05-03T12:39:39;100743.00;;;19.13;72.62
57904;BME280;43720;47.462;19.030;2023-05-03T12:42:47;100749.16;;;19.15;71.92
57904;BME280;43720;47.462;19.030;2023-05-03T12:45:49;100745.59;;;19.16;73.47
57904;BME280;43720;47.462;19.030;2023-05-03T12:49:05;100742.88;;;19.21;73.37
57904;BME280;43720;47.462;19.030;2023-05-03T12:52:09;100740.97;;;19.30;71.21
57904;BME280;43720;47.462;19.030;2023-05-03T12:55:32;100734.94;;;19.21;73.01
57904;BME280;43720;47.462;19.030;2023-05-03T12:58:41;100730.41;;;19.27;72.44
57904;BME280;43720;47.462;19.030;2023-05-03T13:02:03;100733.03;;;19.27;70.97
57904;BME280;43720;47.462;19.030;2023-05-03T13:05:26;100726.09;;;19.22;71.58
57904;BME280;43720;47.462;19.030;2023-05-03T13:08:37;100729.72;;;19.15;72.35
57904;BME280;43720;47.462;19.030;2023-05-03T13:11:41;100726.19;;;19.13;72.78
57904;BME280;43720;47.462;19.030;2023-05-03T13:14:44;100733.25;;;19.17;73.25
57904;BME280;43720;47.462;19.030;2023-05-03T13:17:46;100735.03;;;19.15;73.70
57904;BME280;43720;47.462;19.030;2023-05-03T13:20:51;100724.47;;;19.12;73.59
57904;BME280;43720;47.462;19.030;2023-05-03T13:23:53;100726.28;;;19.10;74.26
57904;BME280;43720;47.462;19.030;2023-05-03T13:26:56;100725.41;;;19.09;74.83
57904;BME280;43720;47.462;19.030;2023-05-03T13:29:59;100731.78;;;18.94;79.02
57904;BME280;43720;47.462;19.030;2023-05-03T13:33:03;100729.91;;;19.01;80.79
57904;BME280;43720;47.462;19.030;2023-05-03T13:36:07;100723.69;;;19.03;81.37
57904;BME280;43720;47.462;19.030;2023-05-03T13:39:09;100726.25;;;19.11;80.88
57904;BME280;43720;47.462;19.030;2023-05-03T13:42:11;100719.78;;;19.27;78.82
57904;BME280;43720;47.462;19.030;2023-05-03T13:45:14;100713.44;;;19.38;78.77
57904;BME280;43720;47.462;19.030;2023-05-03T13:48:16;100709.72;;;19.49;78.33
57904;BME280;43720;47.462;19.030;2023-05-03T13:51:20;100715.88;;;19.51;78.84
57904;BME280;43720;47.462;19.030;2023-05-03T13:54:23;100713.06;;;19.59;79.37
57904;BME280;43720;47.462;19.030;2023-05-03T13:57:25;100716.53;;;19.66;79.37
57904;BME280;43720;47.462;19.030;2023-05-03T14:00:27;100704.87;;;19.76;78.82
57904;BME280;43720;47.462;19.030;2023-05-03T14:03:33;100708.22;;;19.86;77.09
57904;BME280;43720;47.462;19.030;2023-05-03T14:06:36;100705.41;;;19.95;75.89
57904;BME280;43720;47.462;19.030;2023-05-03T14:09:41;100697.13;;;20.12;77.52
57904;BME280;43720;47.462;19.030;2023-05-03T14:12:44;100694.75;;;19.96;74.79
57904;BME280;43720;47.462;19.030;2023-05-03T14:15:46;100686.94;;;19.90;74.36
57904;BME280;43720;47.462;19.030;2023-05-03T14:18:49;100689.62;;;19.87;73.22
57904;BME280;43720;47.462;19.030;2023-05-03T14:21:55;100685.31;;;19.82;72.81
57904;BME280;43720;47.462;19.030;2023-05-03T14:25:00;100685.00;;;19.97;71.30
57904;BME280;43720;47.462;19.030;2023-05-03T14:28:03;100684.19;;;19.93;72.08
57904;BME280;43720;47.462;19.030;2023-05-03T14:31:06;100683.38;;;19.90;73.95
57904;BME280;43720;47.462;19.030;2023-05-03T14:34:09;100680.91;;;19.81;73.25
57904;BME280;43720;47.462;19.030;2023-05-03T14:37:11;100687.13;;;19.78;74.23
57904;BME280;43720;47.462;19.030;2023-05-03T14:40:15;100679.34;;;19.69;72.15
57904;BME280;43720;47.462;19.030;2023-05-03T14:43:21;100683.00;;;19.62;72.95
57904;BME280;43720;47.462;19.030;2023-05-03T14:46:23;100685.56;;;19.66;73.29
57904;BME280;43720;47.462;19.030;2023-05-03T14:49:29;100695.59;;;19.49;73.63
57904;BME280;43720;47.462;19.030;2023-05-03T14:52:34;100683.28;;;19.43;75.88
57904;BME280;43720;47.462;19.030;2023-05-03T14:55:38;100687.66;;;19.47;77.88
57904;BME280;43720;47.462;19.030;2023-05-03T14:58:40;100691.31;;;19.40;77.47
57904;BME280;43720;47.462;19.030;2023-05-03T15:01:43;100686.19;;;19.29;77.06
57904;BME280;43720;47.462;19.030;2023-05-03T15:04:45;100686.28;;;19.25;77.22
57904;BME280;43720;47.462;19.030;2023-05-03T15:07:48;100688.94;;;19.25;75.75
57904;BME280;43720;47.462;19.030;2023-05-03T15:10:50;100695.22;;;19.16;78.12
57904;BME280;43720;47.462;19.030;2023-05-03T15:13:53;100699.66;;;19.17;77.61
57904;BME280;43720;47.462;19.030;2023-05-03T15:16:55;100694.56;;;19.03;77.71
57904;BME280;43720;47.462;19.030;2023-05-03T15:19:57;100694.94;;;18.79;78.71
57904;BME280;43720;47.462;19.030;2023-05-03T15:23:01;100704.53;;;18.85;80.16
57904;BME280;43720;47.462;19.030;2023-05-03T15:26:03;100699.38;;;18.74;79.96
57904;BME280;43720;47.462;19.030;2023-05-03T15:29:06;100703.66;;;18.86;81.43
57904;BME280;43720;47.462;19.030;2023-05-03T15:32:08;100703.72;;;18.81;79.79
